Time;durP1;ratioP1;P1;durP2;ratioP2;P2;SDS_P1;SDS_P2;PMS_P1;PMS_P2;Temp;Humidity;BMP_temperature;BMP_pressure;BME280_temperature;BME280_humidity;BME280_pressure;Samples;Min_cycle;Max_cycle;Signal;HPM_P1;HPM_P2
2021/06/01 00:01:31;;;;;;;2.13;2.00;;;;;;;;;;5031198;28;20021;-82
2021/06/01 00:03:57;;;;;;;1.60;1.50;;;;;;;;;;5030963;28;20092;-81
2021/06/01 00:06:24;;;;;;;1.80;1.58;;;;;;;;;;5031241;28;20108;-81
2021/06/01 00:08:50;;;;;;;1.90;1.80;;;;;;;;;;5030075;28;20026;-82
2021/06/01 00:11:16;;;;;;;1.98;1.88;;;;;;;;;;5029695;28;20026;-82
2021/06/01 00:13:43;;;;;;;2.03;1.83;;;;;;;;;;5031100;28;20067;-81
2021/06/01 00:16:09;;;;;;;2.35;2.15;;;;;;;;;;5030851;28;20033;-82
2021/06/01 00:18:35;;;;;;;1.40;1.30;;;;;;;;;;5030049;28;20097;-82
2021/06/01 00:21:02;;;;;;;1.83;1.73;;;;;;;;;;5029726;28;20110;-81
2021/06/01 00:23:28;;;;;;;1.92;1.83;;;;;;;;;;5031078;28;20026;-82
2021/06/01 00:25:55;;;;;;;1.67;1.58;;;;;;;;;;5030328;28;20029;-82
2021/06/01 00:28:21;;;;;;;1.20;1.20;;;;;;;;;;5030134;28;20022;-81
2021/06/01 00:30:47;;;;;;;2.15;2.05;;;;;;;;;;5029585;28;20022;-82
2021/06/01 00:33:13;;;;;;;1.92;1.83;;;;;;;;;;5030484;28;20097;-82
2021/06/01 00:35:39;;;;;;;3.00;2.05;;;;;;;;;;5030557;28;20085;-81
2021/06/01 00:38:05;;;;;;;3.38;2.33;;;;;;;;;;5028718;28;20029;-81
2021/06/01 00:40:32;;;;;;;1.50;1.40;;;;;;;;;;5028361;28;20041;-81
2021/06/01 00:42:59;;;;;;;2.20;1.70;;;;;;;;;;5030353;28;20550;-81
2021/06/01 00:45:26;;;;;;;2.05;1.95;;;;;;;;;;5030595;28;20076;-82
2021/06/01 00:47:52;;;;;;;2.58;2.38;;;;;;;;;;5028445;28;20112;-82
2021/06/01 00:50:21;;;;;;;2.17;1.98;;;;;;;;;;5029386;28;20029;-82
2021/06/01 00:52:47;;;;;;;2.58;1.45;;;;;;;;;;5030278;28;20053;-81
2021/06/01 00:55:13;;;;;;;2.63;1.80;;;;;;;;;;5030162;28;20029;-81
2021/06/01 00:57:39;;;;;;;2.78;1.67;;;;;;;;;;5030178;28;20030;-82
2021/06/01 01:00:10;;;;;;;4.07;1.73;;;;;;;;;;5028891;28;20021;-81
2021/06/01 01:02:37;;;;;;;1.92;1.83;;;;;;;;;;5030137;28;20029;-81
2021/06/01 01:05:06;;;;;;;1.85;1.75;;;;;;;;;;5030566;28;20104;-81
2021/06/01 01:07:45;;;;;;;2.97;1.90;;;;;;;;;;5030100;28;20028;-81
2021/06/01 01:10:13;;;;;;;2.55;2.35;;;;;;;;;;5027740;28;20075;-81
2021/06/01 01:12:51;;;;;;;2.38;2.03;;;;;;;;;;5030266;28;20034;-82
2021/06/01 01:15:20;;;;;;;3.03;2.13;;;;;;;;;;5029980;28;20518;-82
2021/06/01 01:17:47;;;;;;;2.00;1.73;;;;;;;;;;5028803;28;20026;-81
2021/06/01 01:20:16;;;;;;;2.20;2.00;;;;;;;;;;5028690;28;20040;-82
2021/06/01 01:22:43;;;;;;;2.08;1.88;;;;;;;;;;5028412;28;20033;-82
2021/06/01 01:25:14;;;;;;;1.48;1.38;;;;;;;;;;5029688;28;20095;-81
2021/06/01 01:27:43;;;;;;;1.92;1.58;;;;;;;;;;5029526;28;20511;-82
2021/06/01 01:30:09;;;;;;;2.08;1.67;;;;;;;;;;5028409;28;20463;-81
2021/06/01 01:32:41;;;;;;;1.40;1.30;;;;;;;;;;5029482;28;20108;-81
2021/06/01 01:35:09;;;;;;;1.35;1.25;;;;;;;;;;5029463;28;20064;-82
2021/06/01 01:37:36;;;;;;;1.58;1.48;;;;;;;;;;5029517;28;20036;-81
2021/06/01 01:40:04;;;;;;;2.60;2.40;;;;;;;;;;5027132;28;20698;-81
2021/06/01 01:42:40;;;;;;;2.08;1.92;;;;;;;;;;5029454;28;20021;-81
2021/06/01 01:45:12;;;;;;;2.53;1.83;;;;;;;;;;5029135;28;20453;-81
2021/06/01 01:50:13;;;;;;;1.73;1.63;;;;;;;;;;5027928;28;20043;-82
2021/06/01 01:52:40;;;;;;;2.63;1.77;;;;;;;;;;5028565;28;20028;-82
2021/06/01 01:55:08;;;;;;;2.20;2.10;;;;;;;;;;5029106;28;20106;-81
2021/06/01 01:57:35;;;;;;;1.95;1.60;;;;;;;;;;5029235;28;20033;-82
2021/06/01 02:00:02;;;;;;;1.58;1.48;;;;;;;;;;5028069;28;20025;-81
2021/06/01 02:02:28;;;;;;;1.95;1.70;;;;;;;;;;5029145;28;20423;-82
2021/06/01 02:04:54;;;;;;;1.50;1.40;;;;;;;;;;5029196;28;20503;-81
2021/06/01 02:07:20;;;;;;;1.75;1.50;;;;;;;;;;5029536;28;20488;-81
2021/06/01 02:09:46;;;;;;;1.85;1.70;;;;;;;;;;5026659;28;20044;-81
2021/06/01 02:12:14;;;;;;;2.05;1.95;;;;;;;;;;5029090;28;20072;-82
2021/06/01 02:14:40;;;;;;;1.33;1.23;;;;;;;;;;5029034;28;20446;-81
2021/06/01 02:17:06;;;;;;;2.42;2.22;;;;;;;;;;5028835;28;20045;-81
2021/06/01 02:19:32;;;;;;;2.28;2.15;;;;;;;;;;5028576;28;20036;-81
2021/06/01 02:22:26;;;;;;;1.88;1.65;;;;;;;;;;5028283;28;20033;-81
2021/06/01 02:24:54;;;;;;;1.75;1.65;;;;;;;;;;5028508;28;20411;-81
2021/06/01 02:27:24;;;;;;;2.45;2.25;;;;;;;;;;5029622;28;20495;-81
2021/06/01 02:30:02;;;;;;;1.75;1.33;;;;;;;;;;5027401;28;20473;-81
2021/06/01 02:32:40;;;;;;;2.50;2.30;;;;;;;;;;5028918;28;20030;-82
2021/06/01 02:35:08;;;;;;;2.15;2.05;;;;;;;;;;5028588;28;20022;-81
2021/06/01 02:37:36;;;;;;;1.27;1.27;;;;;;;;;;5029248;28;20539;-82
2021/06/01 02:40:03;;;;;;;2.20;2.10;;;;;;;;;;5026123;28;20083;-81
2021/06/01 02:42:29;;;;;;;1.27;1.27;;;;;;;;;;5028869;28;20029;-81
2021/06/01 02:44:55;;;;;;;2.85;1.63;;;;;;;;;;5028108;28;20030;-81
2021/06/01 02:47:22;;;;;;;2.33;2.13;;;;;;;;;;5029327;28;20061;-82
2021/06/01 02:49:49;;;;;;;2.55;2.35;;;;;;;;;;5027602;28;20036;-81
2021/06/01 02:52:15;;;;;;;1.85;1.75;;;;;;;;;;5028665;28;20038;-82
2021/06/01 02:54:42;;;;;;;1.83;1.65;;;;;;;;;;5029099;28;20037;-82
2021/06/01 02:57:08;;;;;;;2.70;1.63;;;;;;;;;;5028301;28;20021;-82
2021/06/01 02:59:35;;;;;;;1.55;1.45;;;;;;;;;;5027586;28;20840;-82
2021/06/01 03:02:02;;;;;;;1.38;1.27;;;;;;;;;;5030288;28;20029;-82
2021/06/01 03:04:28;;;;;;;2.15;1.98;;;;;;;;;;5032677;28;20033;-82
2021/06/01 03:06:54;;;;;;;1.60;1.38;;;;;;;;;;5030589;28;20641;-81
2021/06/01 03:09:20;;;;;;;1.45;1.27;;;;;;;;;;5030659;28;20029;-82
2021/06/01 03:11:48;;;;;;;1.38;1.20;;;;;;;;;;5031098;28;20256;-81
2021/06/01 03:14:14;;;;;;;2.20;1.85;;;;;;;;;;5031286;28;20029;-81
2021/06/01 03:16:40;;;;;;;1.55;1.45;;;;;;;;;;5031410;28;20013;-82
2021/06/01 03:19:06;;;;;;;1.38;1.27;;;;;;;;;;5030585;28;20478;-81
2021/06/01 03:21:33;;;;;;;2.55;1.75;;;;;;;;;;5031817;28;20052;-81
2021/06/01 03:24:00;;;;;;;1.75;1.63;;;;;;;;;;5031525;28;20083;-81
2021/06/01 03:26:26;;;;;;;2.13;2.03;;;;;;;;;;5031848;28;20036;-81
2021/06/01 03:28:52;;;;;;;2.03;1.92;;;;;;;;;;5030652;28;20186;-81
2021/06/01 03:31:18;;;;;;;1.38;1.25;;;;;;;;;;5031455;28;20104;-81
2021/06/01 03:33:44;;;;;;;1.67;1.40;;;;;;;;;;5032021;28;20033;-81
2021/06/01 03:36:10;;;;;;;2.13;1.67;;;;;;;;;;5031576;28;20021;-82
2021/06/01 03:38:37;;;;;;;1.42;1.33;;;;;;;;;;5031459;28;20032;-82
2021/06/01 03:41:04;;;;;;;2.03;1.55;;;;;;;;;;5029837;28;20041;-82
2021/06/01 03:43:30;;;;;;;2.33;1.75;;;;;;;;;;5031324;28;20021;-81
2021/06/01 03:45:57;;;;;;;2.63;1.67;;;;;;;;;;5031460;28;20099;-82
2021/06/01 03:48:23;;;;;;;1.63;1.52;;;;;;;;;;5030953;28;20044;-81
2021/06/01 03:50:49;;;;;;;1.65;1.55;;;;;;;;;;5030756;28;20033;-82
2021/06/01 03:53:15;;;;;;;1.95;1.80;;;;;;;;;;5031507;28;20040;-81
2021/06/01 03:55:41;;;;;;;1.45;1.30;;;;;;;;;;5031311;28;20026;-81
2021/06/01 03:58:08;;;;;;;2.40;1.40;;;;;;;;;;5030887;28;20037;-81
2021/06/01 04:00:35;;;;;;;1.70;1.60;;;;;;;;;;5030087;28;20021;-81
2021/06/01 04:03:01;;;;;;;1.58;1.48;;;;;;;;;;5030598;28;20035;-81
2021/06/01 04:05:27;;;;;;;1.30;1.20;;;;;;;;;;5031558;28;20033;-81
2021/06/01 04:07:54;;;;;;;2.10;1.90;;;;;;;;;;5030686;28;20032;-81
2021/06/01 04:10:20;;;;;;;1.67;1.58;;;;;;;;;;5029303;28;20438;-82
2021/06/01 04:12:46;;;;;;;1.77;1.20;;;;;;;;;;5030949;28;20037;-81
2021/06/01 04:15:13;;;;;;;1.48;1.05;;;;;;;;;;5030628;28;20353;-82
2021/06/01 04:17:39;;;;;;;1.58;1.00;;;;;;;;;;5030909;28;20113;-82
2021/06/01 04:20:06;;;;;;;1.83;1.67;;;;;;;;;;5029772;28;20123;-81
2021/06/01 04:22:32;;;;;;;1.80;1.40;;;;;;;;;;5030933;28;20028;-81
2021/06/01 04:24:58;;;;;;;1.50;1.40;;;;;;;;;;5030289;28;20025;-81
2021/06/01 04:27:24;;;;;;;1.58;1.48;;;;;;;;;;5030526;28;20029;-81
2021/06/01 04:29:50;;;;;;;3.20;1.90;;;;;;;;;;5029634;28;20041;-81
2021/06/01 04:32:17;;;;;;;1.80;1.67;;;;;;;;;;5030682;28;20022;-81
2021/06/01 04:34:43;;;;;;;3.83;2.03;;;;;;;;;;5030761;28;20026;-81
2021/06/01 04:37:09;;;;;;;2.10;1.75;;;;;;;;;;5030120;28;20100;-81
2021/06/01 04:39:35;;;;;;;2.08;1.50;;;;;;;;;;5028854;28;20035;-81
2021/06/01 04:42:01;;;;;;;2.35;1.83;;;;;;;;;;5029838;28;20080;-81
2021/06/01 04:44:27;;;;;;;1.95;1.83;;;;;;;;;;5028901;28;20597;-81
2021/06/01 04:46:53;;;;;;;3.38;1.95;;;;;;;;;;5029987;28;20033;-81
2021/06/01 04:49:20;;;;;;;2.05;1.95;;;;;;;;;;5029772;28;20030;-81
2021/06/01 04:51:46;;;;;;;1.40;1.30;;;;;;;;;;5030292;28;20056;-81
2021/06/01 04:54:12;;;;;;;1.58;1.42;;;;;;;;;;5029795;28;20108;-81
2021/06/01 04:56:38;;;;;;;2.35;1.45;;;;;;;;;;5030355;28;20044;-82
2021/06/01 04:59:04;;;;;;;2.25;1.48;;;;;;;;;;5028797;28;20033;-81
2021/06/01 05:01:30;;;;;;;1.70;1.55;;;;;;;;;;5030269;28;20021;-82
2021/06/01 05:03:56;;;;;;;1.60;1.50;;;;;;;;;;5029556;28;20487;-82
2021/06/01 05:06:23;;;;;;;1.60;1.48;;;;;;;;;;5030420;28;20869;-82
2021/06/01 05:08:49;;;;;;;0.90;0.90;;;;;;;;;;5028989;28;20049;-81
2021/06/01 05:11:15;;;;;;;0.95;0.80;;;;;;;;;;5028580;28;20056;-81
2021/06/01 05:13:42;;;;;;;1.50;1.38;;;;;;;;;;5029548;28;20032;-82
2021/06/01 05:16:08;;;;;;;1.45;1.35;;;;;;;;;;5029655;28;20090;-81
2021/06/01 05:18:34;;;;;;;1.40;1.25;;;;;;;;;;5029151;28;20033;-81
2021/06/01 05:21:00;;;;;;;2.70;1.55;;;;;;;;;;5029449;28;20068;-81
2021/06/01 05:23:26;;;;;;;1.95;1.30;;;;;;;;;;5029466;28;20044;-81
2021/06/01 05:25:54;;;;;;;1.95;1.38;;;;;;;;;;5029050;28;20033;-81
2021/06/01 05:28:20;;;;;;;1.42;1.20;;;;;;;;;;5028902;28;20506;-81
2021/06/01 05:33:22;;;;;;;1.20;1.10;;;;;;;;;;5029691;28;20116;-82
2021/06/01 05:35:54;;;;;;;2.90;1.50;;;;;;;;;;5029390;28;20030;-82
2021/06/01 05:38:24;;;;;;;1.38;1.27;;;;;;;;;;5029177;28;20025;-81
2021/06/01 05:40:50;;;;;;;1.88;1.75;;;;;;;;;;5027715;28;20054;-81
2021/06/01 05:43:16;;;;;;;1.15;1.00;;;;;;;;;;5029159;28;20025;-81
2021/06/01 05:45:43;;;;;;;1.67;0.98;;;;;;;;;;5026909;28;20038;-82
2021/06/01 05:48:10;;;;;;;2.58;1.60;;;;;;;;;;5026092;28;20048;-81
2021/06/01 05:50:36;;;;;;;3.95;1.17;;;;;;;;;;5026134;28;20618;-84
2021/06/01 05:53:02;;;;;;;1.65;0.93;;;;;;;;;;5026684;28;20083;-81
2021/06/01 05:55:29;;;;;;;0.98;0.93;;;;;;;;;;5029093;28;20036;-83
2021/06/01 05:57:55;;;;;;;1.55;0.80;;;;;;;;;;5028343;28;20075;-81
2021/06/01 06:00:21;;;;;;;2.80;1.55;;;;;;;;;;5028744;28;20479;-82
2021/06/01 06:02:47;;;;;;;2.33;0.90;;;;;;;;;;5027625;28;20061;-81
2021/06/01 06:05:14;;;;;;;3.25;2.00;;;;;;;;;;5025280;28;20048;-82
2021/06/01 06:07:40;;;;;;;3.90;1.65;;;;;;;;;;5024126;28;20029;-82
2021/06/01 06:10:07;;;;;;;3.78;1.40;;;;;;;;;;5025701;28;20064;-81
2021/06/01 06:12:34;;;;;;;1.77;1.40;;;;;;;;;;5023871;28;20045;-81
2021/06/01 06:15:00;;;;;;;4.40;1.85;;;;;;;;;;5022879;28;20017;-81
2021/06/01 06:17:43;;;;;;;2.83;1.58;;;;;;;;;;5023313;28;20029;-82
2021/06/01 06:20:10;;;;;;;2.75;1.70;;;;;;;;;;5023055;28;20022;-81
2021/06/01 06:22:37;;;;;;;2.20;1.63;;;;;;;;;;5024594;28;20104;-81
2021/06/01 06:25:07;;;;;;;4.10;1.05;;;;;;;;;;5024992;28;20591;-81
2021/06/01 06:27:33;;;;;;;1.83;1.00;;;;;;;;;;5022944;28;20040;-82
2021/06/01 06:29:59;;;;;;;4.35;0.90;;;;;;;;;;5008442;28;20040;-82
2021/06/01 06:32:25;;;;;;;1.05;0.88;;;;;;;;;;5021191;28;20068;-82
2021/06/01 06:34:53;;;;;;;4.90;1.48;;;;;;;;;;5020968;28;20040;-81
2021/06/01 06:37:19;;;;;;;2.15;1.40;;;;;;;;;;5025280;28;20100;-82
2021/06/01 06:39:45;;;;;;;4.30;3.10;;;;;;;;;;5009408;28;20124;-84
2021/06/01 06:42:11;;;;;;;4.35;2.50;;;;;;;;;;5006485;28;20547;-83
2021/06/01 06:44:40;;;;;;;2.72;2.20;;;;;;;;;;5026260;28;20033;-84
2021/06/01 06:49:36;;;;;;;7.95;1.73;;;;;;;;;;5018119;28;20036;-82
2021/06/01 06:52:02;;;;;;;4.05;2.15;;;;;;;;;;5012051;28;20029;-83
2021/06/01 06:54:29;;;;;;;2.13;1.70;;;;;;;;;;5030507;28;20056;-83
2021/06/01 06:56:55;;;;;;;2.65;1.80;;;;;;;;;;5028972;28;20511;-82
2021/06/01 06:59:21;;;;;;;4.00;1.65;;;;;;;;;;5016081;28;20049;-83
2021/06/01 07:01:48;;;;;;;2.08;1.38;;;;;;;;;;5025299;28;20025;-81
2021/06/01 07:04:14;;;;;;;8.15;2.05;;;;;;;;;;5026444;28;20196;-82
2021/06/01 07:06:40;;;;;;;2.00;1.23;;;;;;;;;;5005498;28;20059;-81
2021/06/01 07:09:07;;;;;;;3.85;1.75;;;;;;;;;;5022319;28;20057;-81
2021/06/01 07:11:34;;;;;;;2.47;1.65;;;;;;;;;;5021158;28;20061;-80
2021/06/01 07:14:06;;;;;;;1.58;1.45;;;;;;;;;;5017944;28;20036;-78
2021/06/01 07:16:32;;;;;;;6.78;1.88;;;;;;;;;;5019095;28;20120;-78
2021/06/01 07:18:58;;;;;;;4.90;1.35;;;;;;;;;;5020073;28;20136;-79
2021/06/01 07:21:24;;;;;;;4.88;2.30;;;;;;;;;;5014305;28;20033;-78
2021/06/01 07:23:50;;;;;;;1.42;1.33;;;;;;;;;;5020127;28;20029;-78
2021/06/01 07:26:17;;;;;;;2.72;1.48;;;;;;;;;;5021531;28;20041;-79
2021/06/01 07:28:43;;;;;;;2.95;1.80;;;;;;;;;;5020664;28;20029;-81
2021/06/01 07:31:14;;;;;;;5.10;1.55;;;;;;;;;;5018951;28;20029;-80
2021/06/01 07:33:40;;;;;;;3.35;1.60;;;;;;;;;;5022657;28;20651;-80
2021/06/01 07:36:06;;;;;;;6.78;1.67;;;;;;;;;;5019612;28;20271;-79
2021/06/01 07:38:32;;;;;;;2.95;1.33;;;;;;;;;;5019810;28;20033;-80
2021/06/01 07:40:58;;;;;;;4.97;1.90;;;;;;;;;;5019928;28;20555;-78
2021/06/01 07:43:24;;;;;;;1.90;1.20;;;;;;;;;;5022498;28;20447;-80
2021/06/01 07:45:51;;;;;;;4.63;1.67;;;;;;;;;;5021907;28;20034;-81
2021/06/01 07:48:17;;;;;;;1.17;1.08;;;;;;;;;;5019042;28;20025;-81
2021/06/01 07:50:43;;;;;;;3.17;1.38;;;;;;;;;;5022939;28;20057;-79
2021/06/01 07:53:09;;;;;;;4.72;1.75;;;;;;;;;;5021965;28;20042;-81
2021/06/01 07:55:35;;;;;;;1.77;1.17;;;;;;;;;;5022561;28;20037;-79
2021/06/01 07:58:01;;;;;;;4.60;1.52;;;;;;;;;;5016627;28;20084;-78
2021/06/01 08:00:27;;;;;;;3.95;1.65;;;;;;;;;;5018320;28;20334;-79
2021/06/01 08:02:54;;;;;;;3.17;1.13;;;;;;;;;;5020278;28;20037;-79
2021/06/01 08:05:20;;;;;;;3.80;1.40;;;;;;;;;;5013872;28;20048;-78
2021/06/01 08:07:48;;;;;;;3.63;1.27;;;;;;;;;;5014309;28;20112;-78
2021/06/01 08:10:20;;;;;;;3.95;1.50;;;;;;;;;;5008567;28;20029;-78
2021/06/01 08:12:47;;;;;;;3.03;2.13;;;;;;;;;;5021050;28;20656;-78
2021/06/01 08:15:14;;;;;;;3.00;1.60;;;;;;;;;;5021228;28;20030;-79
2021/06/01 08:17:41;;;;;;;2.00;1.80;;;;;;;;;;5020192;28;21272;-78
2021/06/01 08:20:34;;;;;;;4.53;2.00;;;;;;;;;;5021035;28;20126;-80
2021/06/01 08:22:54;;;;;;;4.13;2.22;;;;;;;;;;5021627;28;20041;-82
2021/06/01 08:25:20;;;;;;;5.72;2.10;;;;;;;;;;5016537;28;20057;-81
2021/06/01 08:27:47;;;;;;;2.05;1.88;;;;;;;;;;5011877;28;20025;-80
2021/06/01 08:30:14;;;;;;;4.25;1.90;;;;;;;;;;5021556;28;20040;-80
2021/06/01 08:32:40;;;;;;;2.88;1.40;;;;;;;;;;5020820;28;20068;-79
2021/06/01 08:35:06;;;;;;;3.63;1.10;;;;;;;;;;5018962;28;20026;-79
2021/06/01 08:37:32;;;;;;;2.00;1.70;;;;;;;;;;5017900;28;20053;-78
2021/06/01 08:39:59;;;;;;;6.78;4.28;;;;;;;;;;5018109;28;20040;-78
2021/06/01 08:42:25;;;;;;;7.25;4.28;;;;;;;;;;5005370;28;20511;-80
2021/06/01 08:44:51;;;;;;;3.65;2.30;;;;;;;;;;5016746;28;20029;-81
2021/06/01 08:47:19;;;;;;;4.30;1.42;;;;;;;;;;5016885;28;20029;-78
2021/06/01 08:49:46;;;;;;;4.82;1.80;;;;;;;;;;5018672;28;20521;-79
2021/06/01 08:52:13;;;;;;;1.98;1.27;;;;;;;;;;5019569;28;21068;-78
2021/06/01 08:54:40;;;;;;;1.38;1.27;;;;;;;;;;5020994;28;20032;-79
2021/06/01 08:57:07;;;;;;;2.33;1.00;;;;;;;;;;5019698;28;20914;-80
2021/06/01 08:59:35;;;;;;;3.22;1.63;;;;;;;;;;5015920;28;20045;-80
2021/06/01 09:02:01;;;;;;;3.10;1.80;;;;;;;;;;5020630;28;20018;-80
2021/06/01 09:04:42;;;;;;;3.90;1.92;;;;;;;;;;5019343;28;20031;-80
2021/06/01 09:07:20;;;;;;;9.50;1.70;;;;;;;;;;5020454;28;20057;-80
2021/06/01 09:10:03;;;;;;;4.57;2.00;;;;;;;;;;5017929;28;20037;-80
2021/06/01 09:12:35;;;;;;;3.22;2.10;;;;;;;;;;5017544;28;20120;-81
2021/06/01 09:15:37;;;;;;;6.20;1.92;;;;;;;;;;5019816;28;20025;-82
2021/06/01 09:21:21;;;;;;;1.70;1.45;;;;;;;;;;5020663;28;20133;-80
2021/06/01 09:23:52;;;;;;;2.05;1.17;;;;;;;;;;5021715;28;20040;-79
2021/06/01 09:26:52;;;;;;;4.10;1.50;;;;;;;;;;5020799;28;20534;-80
2021/06/01 09:29:19;;;;;;;3.33;1.73;;;;;;;;;;5018573;28;20030;-81
2021/06/01 09:31:45;;;;;;;3.33;1.48;;;;;;;;;;5021004;28;20036;-80
2021/06/01 09:34:11;;;;;;;2.63;1.25;;;;;;;;;;5020240;28;20045;-79
2021/06/01 09:36:38;;;;;;;3.08;1.40;;;;;;;;;;5019906;28;20102;-79
2021/06/01 09:39:07;;;;;;;3.20;1.95;;;;;;;;;;5015937;28;20407;-79
2021/06/01 09:41:34;;;;;;;2.28;1.50;;;;;;;;;;5019364;28;20286;-79
2021/06/01 09:44:00;;;;;;;1.75;1.33;;;;;;;;;;5018973;28;20450;-79
2021/06/01 09:46:30;;;;;;;4.57;2.00;;;;;;;;;;5018692;28;20033;-79
2021/06/01 09:49:17;;;;;;;5.22;1.83;;;;;;;;;;5012300;28;20064;-82
2021/06/01 09:51:47;;;;;;;4.45;1.98;;;;;;;;;;5019913;28;20041;-79
2021/06/01 09:54:33;;;;;;;8.75;2.03;;;;;;;;;;5020458;28;20040;-81
2021/06/01 09:57:00;;;;;;;4.13;2.17;;;;;;;;;;5016825;28;20025;-79
2021/06/01 09:59:26;;;;;;;3.22;1.85;;;;;;;;;;5014361;28;20026;-80
2021/06/01 10:01:53;;;;;;;2.83;1.60;;;;;;;;;;5019067;28;20022;-80
2021/06/01 10:04:23;;;;;;;4.05;1.63;;;;;;;;;;5020380;28;20026;-81
2021/06/01 10:06:50;;;;;;;4.93;1.90;;;;;;;;;;5020190;28;20049;-80
2021/06/01 10:09:16;;;;;;;3.40;2.08;;;;;;;;;;5017270;28;20029;-80
2021/06/01 10:11:52;;;;;;;3.75;1.90;;;;;;;;;;5018724;28;20107;-79
2021/06/01 10:14:18;;;;;;;2.03;1.52;;;;;;;;;;5018813;28;20418;-80
2021/06/01 10:16:44;;;;;;;2.85;1.80;;;;;;;;;;5018864;28;20116;-79
2021/06/01 10:19:10;;;;;;;1.70;1.55;;;;;;;;;;5014324;28;20073;-80
2021/06/01 10:21:36;;;;;;;2.28;1.50;;;;;;;;;;5019056;28;20033;-82
2021/06/01 10:24:02;;;;;;;4.32;1.95;;;;;;;;;;5019007;28;20029;-81
2021/06/01 10:26:28;;;;;;;5.03;2.42;;;;;;;;;;5018529;28;20064;-80
2021/06/01 10:28:55;;;;;;;4.85;2.70;;;;;;;;;;5018888;28;20082;-79
2021/06/01 10:31:21;;;;;;;5.53;2.75;;;;;;;;;;5024755;28;20498;-81
2021/06/01 10:33:50;;;;;;;4.40;1.98;;;;;;;;;;5021573;28;20045;-79
2021/06/01 10:44:47;;;;;;;2.67;1.83;;;;;;;;;;5024013;28;20671;-80
2021/06/01 10:50:28;;;;;;;2.55;1.52;;;;;;;;;;5022649;28;20079;-80
2021/06/01 10:53:14;;;;;;;1.73;1.63;;;;;;;;;;5022683;28;20022;-81
2021/06/01 10:55:55;;;;;;;2.05;1.77;;;;;;;;;;5023696;28;20526;-81
2021/06/01 10:58:46;;;;;;;5.78;1.92;;;;;;;;;;5021342;28;20115;-81
2021/06/01 11:04:08;;;;;;;10.18;1.92;;;;;;;;;;5023196;28;20045;-81
2021/06/01 11:06:59;;;;;;;2.80;1.90;;;;;;;;;;5023739;28;20068;-80
2021/06/01 11:09:34;;;;;;;2.83;1.40;;;;;;;;;;5019841;28;20032;-81
2021/06/01 11:12:20;;;;;;;6.10;1.90;;;;;;;;;;5020606;28;20033;-80
2021/06/01 11:14:47;;;;;;;5.18;2.28;;;;;;;;;;5023445;28;20025;-80
2021/06/01 11:17:13;;;;;;;4.18;2.15;;;;;;;;;;5023165;28;20095;-81
2021/06/01 11:19:46;;;;;;;1.60;1.50;;;;;;;;;;5021299;28;20112;-80
2021/06/01 11:22:23;;;;;;;2.22;2.03;;;;;;;;;;5023372;28;20549;-80
2021/06/01 11:33:41;;;;;;;3.88;2.20;;;;;;;;;;5026769;28;20048;-82
2021/06/01 11:36:14;;;;;;;3.80;2.70;;;;;;;;;;5025011;28;20091;-81
2021/06/01 11:43:35;;;;;;;3.45;2.58;;;;;;;;;;5026550;28;20048;-82
2021/06/01 11:46:13;;;;;;;3.85;2.20;;;;;;;;;;5024301;28;20030;-81
2021/06/01 11:51:22;;;;;;;3.92;2.03;;;;;;;;;;5027794;28;20033;-81
2021/06/01 11:53:48;;;;;;;4.10;1.75;;;;;;;;;;5026704;28;20088;-81
2021/06/01 11:56:19;;;;;;;5.38;2.28;;;;;;;;;;5026190;28;20308;-82
2021/06/01 12:18:41;;;;;;;3.80;2.20;;;;;;;;;;5024080;28;20044;-82
2021/06/01 12:21:10;;;;;;;4.70;2.30;;;;;;;;;;5025917;28;20030;-82
2021/06/01 12:23:36;;;;;;;12.23;3.92;;;;;;;;;;5026497;28;20030;-81
2021/06/01 12:26:11;;;;;;;26.00;3.67;;;;;;;;;;5026361;28;20123;-80
2021/06/01 12:31:55;;;;;;;9.25;2.85;;;;;;;;;;5026240;28;20045;-81
2021/06/01 12:34:41;;;;;;;7.05;3.10;;;;;;;;;;5017394;28;20029;-82
2021/06/01 12:45:25;;;;;;;9.65;3.03;;;;;;;;;;5025603;28;20471;-81
2021/06/01 13:07:40;;;;;;;4.78;2.53;;;;;;;;;;5023422;28;20126;-81
2021/06/01 13:22:16;;;;;;;8.23;2.83;;;;;;;;;;5009260;28;20037;-80
2021/06/01 13:30:41;;;;;;;3.47;2.10;;;;;;;;;;5025113;28;20040;-81
2021/06/01 13:38:32;;;;;;;4.90;2.22;;;;;;;;;;5022005;28;20109;-80
2021/06/01 13:46:42;;;;;;;5.18;2.20;;;;;;;;;;5023063;28;20119;-80
2021/06/01 13:49:31;;;;;;;5.55;2.40;;;;;;;;;;5021157;28;20265;-80
2021/06/01 13:58:00;;;;;;;6.13;2.72;;;;;;;;;;5022220;28;20120;-81
2021/06/01 14:29:54;;;;;;;12.75;3.38;;;;;;;;;;5027517;28;20123;-81
2021/06/01 15:03:51;;;;;;;5.72;2.92;;;;;;;;;;5022156;28;20041;-82
2021/06/01 15:32:39;;;;;;;4.88;1.70;;;;;;;;;;5012994;28;20037;-82
2021/06/01 16:14:00;;;;;;;9.15;2.10;;;;;;;;;;5033369;28;20091;-82
2021/06/01 16:30:17;;;;;;;2.90;1.00;;;;;;;;;;5021392;28;20467;-81
2021/06/01 16:43:35;;;;;;;3.15;1.27;;;;;;;;;;5032686;28;20103;-80
2021/06/01 17:05:28;;;;;;;3.25;1.08;;;;;;;;;;5032203;28;20102;-80
2021/06/01 17:08:15;;;;;;;4.15;1.13;;;;;;;;;;5031619;28;20392;-80
2021/06/01 17:11:04;;;;;;;3.88;1.33;;;;;;;;;;5031639;28;20446;-81
2021/06/01 17:13:35;;;;;;;1.55;1.10;;;;;;;;;;5032016;28;20021;-81
2021/06/01 17:16:02;;;;;;;9.23;2.05;;;;;;;;;;5031441;28;20033;-81
2021/06/01 17:24:15;;;;;;;2.78;1.42;;;;;;;;;;5032161;28;20083;-81
2021/06/01 17:32:24;;;;;;;1.10;0.90;;;;;;;;;;5031447;28;20391;-80
2021/06/01 17:34:59;;;;;;;4.20;1.92;;;;;;;;;;5031252;28;20087;-80
2021/06/01 17:37:26;;;;;;;4.45;1.42;;;;;;;;;;5031737;28;20100;-80
2021/06/01 17:39:53;;;;;;;1.92;0.90;;;;;;;;;;5030346;28;20495;-80
2021/06/01 17:42:20;;;;;;;1.55;1.00;;;;;;;;;;5031421;28;20033;-80
2021/06/01 17:44:51;;;;;;;22.63;1.60;;;;;;;;;;5031401;28;20030;-80
2021/06/01 17:47:24;;;;;;;1.98;1.17;;;;;;;;;;5031095;28;20048;-80
2021/06/01 17:49:52;;;;;;;5.22;1.42;;;;;;;;;;5030759;28;20083;-80
2021/06/01 17:52:25;;;;;;;3.42;0.82;;;;;;;;;;5031320;28;20029;-80
2021/06/01 17:54:55;;;;;;;2.25;0.70;;;;;;;;;;5031044;28;20033;-80
2021/06/01 17:57:22;;;;;;;5.78;1.25;;;;;;;;;;5031183;28;20540;-80
2021/06/01 17:59:48;;;;;;;3.63;1.75;;;;;;;;;;5030564;28;20029;-80
2021/06/01 18:02:17;;;;;;;1.17;0.88;;;;;;;;;;5031003;28;20536;-80
2021/06/01 18:04:44;;;;;;;1.17;1.08;;;;;;;;;;5030963;28;20022;-80
2021/06/01 18:07:16;;;;;;;5.10;1.42;;;;;;;;;;5030920;28;20045;-80
2021/06/01 18:43:07;;;;;;;2.60;1.00;;;;;;;;;;5030712;28;20113;-80
2021/06/01 19:51:01;;;;;;;1.33;0.60;;;;;;;;;;5033024;28;20047;-80
2021/06/01 19:53:29;;;;;;;0.35;0.30;;;;;;;;;;5033648;28;20567;-80
2021/06/01 19:55:55;;;;;;;10.90;1.55;;;;;;;;;;5033293;28;20025;-80
2021/06/01 19:58:21;;;;;;;0.80;0.57;;;;;;;;;;5033104;28;20030;-80
2021/06/01 20:00:47;;;;;;;0.95;0.65;;;;;;;;;;5032825;28;20391;-80
2021/06/01 20:03:14;;;;;;;0.80;0.60;;;;;;;;;;5033405;28;20029;-80
2021/06/01 20:05:41;;;;;;;0.50;0.25;;;;;;;;;;5033324;28;20067;-80
2021/06/01 20:08:11;;;;;;;2.80;0.63;;;;;;;;;;5032846;28;20033;-80
2021/06/01 20:10:37;;;;;;;1.20;0.93;;;;;;;;;;5032995;28;20026;-80
2021/06/01 20:13:03;;;;;;;0.93;0.45;;;;;;;;;;5032723;28;20041;-81
2021/06/01 20:15:32;;;;;;;3.53;1.02;;;;;;;;;;5032923;28;20522;-80
2021/06/01 20:18:03;;;;;;;1.48;0.55;;;;;;;;;;5032740;28;20032;-80
2021/06/01 20:20:31;;;;;;;1.45;1.35;;;;;;;;;;5032647;28;20041;-80
2021/06/01 20:23:01;;;;;;;0.98;0.45;;;;;;;;;;5032840;28;20022;-80
2021/06/01 20:25:28;;;;;;;0.95;0.50;;;;;;;;;;5032740;28;20052;-80
2021/06/01 20:27:57;;;;;;;0.68;0.45;;;;;;;;;;5032289;28;20446;-80
2021/06/01 20:30:31;;;;;;;1.17;0.50;;;;;;;;;;5032554;28;20102;-80
2021/06/01 20:35:44;;;;;;;3.45;0.60;;;;;;;;;;5032657;28;20049;-80
2021/06/01 20:38:11;;;;;;;1.67;0.70;;;;;;;;;;5032167;28;20034;-80
2021/06/01 20:40:37;;;;;;;0.50;0.50;;;;;;;;;;5031960;28;20041;-80
2021/06/01 20:43:03;;;;;;;1.00;0.90;;;;;;;;;;5032536;28;20536;-80
2021/06/01 20:45:30;;;;;;;2.28;0.63;;;;;;;;;;5032392;28;20087;-80
2021/06/01 20:47:58;;;;;;;0.77;0.70;;;;;;;;;;5032033;28;20064;-80
2021/06/01 20:50:25;;;;;;;1.88;0.73;;;;;;;;;;5032054;28;20029;-80
2021/06/01 20:52:51;;;;;;;0.90;0.50;;;;;;;;;;5032385;28;20029;-80
2021/06/01 20:55:18;;;;;;;1.40;0.90;;;;;;;;;;5031251;28;20401;-80
2021/06/01 20:57:48;;;;;;;1.55;0.98;;;;;;;;;;5032452;28;20407;-80
2021/06/01 21:00:14;;;;;;;0.85;0.80;;;;;;;;;;5031575;28;20025;-80
2021/06/01 21:02:41;;;;;;;2.28;0.60;;;;;;;;;;5032134;28;20033;-80
2021/06/01 21:05:08;;;;;;;0.90;0.40;;;;;;;;;;5031977;28;20172;-80
2021/06/01 21:07:35;;;;;;;0.45;0.30;;;;;;;;;;5032233;28;20555;-80
2021/06/01 21:10:01;;;;;;;2.75;0.50;;;;;;;;;;5030715;28;20050;-80
2021/06/01 21:12:28;;;;;;;8.63;1.15;;;;;;;;;;5032309;28;20108;-81
2021/06/01 21:14:54;;;;;;;1.02;0.43;;;;;;;;;;5031790;28;20064;-80
2021/06/01 21:17:22;;;;;;;2.05;0.68;;;;;;;;;;5031951;28;20025;-80
2021/06/01 21:19:48;;;;;;;1.05;0.50;;;;;;;;;;5031244;28;20461;-80
2021/06/01 21:22:15;;;;;;;1.27;0.73;;;;;;;;;;5031904;28;20037;-80
2021/06/01 21:24:41;;;;;;;1.00;0.57;;;;;;;;;;5031991;28;20029;-80
2021/06/01 21:27:07;;;;;;;0.93;0.55;;;;;;;;;;5031568;28;20376;-80
2021/06/01 21:29:36;;;;;;;1.35;0.50;;;;;;;;;;5031384;28;20037;-80
2021/06/01 21:32:07;;;;;;;1.33;0.60;;;;;;;;;;5031613;28;20463;-80
2021/06/01 21:34:39;;;;;;;0.70;0.45;;;;;;;;;;5031769;28;20106;-80
2021/06/01 21:37:05;;;;;;;1.85;0.57;;;;;;;;;;5031134;28;20033;-80
2021/06/01 21:39:32;;;;;;;2.53;0.52;;;;;;;;;;5031375;28;20033;-80
2021/06/01 21:41:58;;;;;;;2.35;0.50;;;;;;;;;;5031039;28;20061;-80